sensor_id;sensor_type;location;lat;lon;timestamp;P1;durP1;ratioP1;P2;durP2;ratioP2
14613;SDS011;7393;51.446;6.800;2023-04-24T00:00:18;1.60;;;1.27;;
14613;SDS011;7393;51.446;6.800;2023-04-24T00:02:47;1.47;;;1.07;;
14613;SDS011;7393;51.446;6.800;2023-04-24T00:05:14;2.47;;;1.50;;
14613;SDS011;7393;51.446;6.800;2023-04-24T00:07:42;1.90;;;1.03;;
14613;SDS011;7393;51.446;6.800;2023-04-24T00:10:10;5.03;;;1.30;;
14613;SDS011;7393;51.446;6.800;2023-04-24T00:12:38;2.70;;;1.10;;
14613;SDS011;7393;51.446;6.800;2023-04-24T00:15:05;1.27;;;1.17;;
14613;SDS011;7393;51.446;6.800;2023-04-24T00:17:33;0.93;;;0.93;;
14613;SDS011;7393;51.446;6.800;2023-04-24T00:20:01;1.30;;;1.20;;
14613;SDS011;7393;51.446;6.800;2023-04-24T00:22:29;1.53;;;1.30;;
14613;SDS011;7393;51.446;6.800;2023-04-24T00:24:57;1.50;;;1.30;;
14613;SDS011;7393;51.446;6.800;2023-04-24T00:27:23;1.83;;;1.40;;
14613;SDS011;7393;51.446;6.800;2023-04-24T00:29:50;3.07;;;1.70;;
14613;SDS011;7393;51.446;6.800;2023-04-24T00:32:17;2.50;;;1.70;;
14613;SDS011;7393;51.446;6.800;2023-04-24T00:34:44;3.70;;;2.27;;
14613;SDS011;7393;51.446;6.800;2023-04-24T00:37:12;3.53;;;2.10;;
14613;SDS011;7393;51.446;6.800;2023-04-24T00:39:41;3.40;;;2.20;;
14613;SDS011;7393;51.446;6.800;2023-04-24T00:42:07;3.80;;;2.10;;
14613;SDS011;7393;51.446;6.800;2023-04-24T00:44:35;3.07;;;1.97;;
14613;SDS011;7393;51.446;6.800;2023-04-24T00:47:01;2.43;;;2.07;;
14613;SDS011;7393;51.446;6.800;2023-04-24T00:49:28;2.90;;;1.93;;
14613;SDS011;7393;51.446;6.800;2023-04-24T00:51:58;2.80;;;2.20;;
14613;SDS011;7393;51.446;6.800;2023-04-24T00:54:27;2.30;;;2.00;;
14613;SDS011;7393;51.446;6.800;2023-04-24T00:56:53;3.03;;;2.20;;
14613;SDS011;7393;51.446;6.800;2023-04-24T00:59:21;2.63;;;2.23;;
14613;SDS011;7393;51.446;6.800;2023-04-24T01:01:48;2.23;;;1.93;;
14613;SDS011;7393;51.446;6.800;2023-04-24T01:04:15;3.77;;;2.47;;
14613;SDS011;7393;51.446;6.800;2023-04-24T01:06:44;4.07;;;2.73;;
14613;SDS011;7393;51.446;6.800;2023-04-24T01:09:11;4.40;;;3.03;;
14613;SDS011;7393;51.446;6.800;2023-04-24T01:11:43;3.87;;;2.83;;
14613;SDS011;7393;51.446;6.800;2023-04-24T01:14:10;3.03;;;2.70;;
14613;SDS011;7393;51.446;6.800;2023-04-24T01:16:37;3.93;;;2.87;;
14613;SDS011;7393;51.446;6.800;2023-04-24T01:19:04;3.77;;;2.90;;
14613;SDS011;7393;51.446;6.800;2023-04-24T01:21:33;5.40;;;3.57;;
14613;SDS011;7393;51.446;6.800;2023-04-24T01:24:04;3.93;;;3.37;;
14613;SDS011;7393;51.446;6.800;2023-04-24T01:26:33;5.00;;;3.30;;
14613;SDS011;7393;51.446;6.800;2023-04-24T01:28:59;4.20;;;3.50;;
14613;SDS011;7393;51.446;6.800;2023-04-24T01:31:26;5.70;;;3.77;;
14613;SDS011;7393;51.446;6.800;2023-04-24T01:33:54;5.93;;;3.63;;
14613;SDS011;7393;51.446;6.800;2023-04-24T01:36:22;4.50;;;3.73;;
14613;SDS011;7393;51.446;6.800;2023-04-24T01:38:50;5.20;;;4.47;;
14613;SDS011;7393;51.446;6.800;2023-04-24T01:41:18;5.27;;;4.23;;
14613;SDS011;7393;51.446;6.800;2023-04-24T01:43:46;7.80;;;4.87;;
14613;SDS011;7393;51.446;6.800;2023-04-24T01:46:13;8.80;;;5.33;;
14613;SDS011;7393;51.446;6.800;2023-04-24T01:48:41;7.70;;;5.47;;
14613;SDS011;7393;51.446;6.800;2023-04-24T01:51:07;7.37;;;5.33;;
14613;SDS011;7393;51.446;6.800;2023-04-24T01:53:34;6.53;;;4.90;;
14613;SDS011;7393;51.446;6.800;2023-04-24T01:56:01;8.43;;;5.33;;
14613;SDS011;7393;51.446;6.800;2023-04-24T01:58:30;9.07;;;5.67;;
14613;SDS011;7393;51.446;6.800;2023-04-24T02:00:57;8.57;;;6.30;;
14613;SDS011;7393;51.446;6.800;2023-04-24T02:03:24;8.73;;;6.33;;
14613;SDS011;7393;51.446;6.800;2023-04-24T02:05:51;10.97;;;6.50;;
14613;SDS011;7393;51.446;6.800;2023-04-24T02:08:18;10.97;;;6.43;;
14613;SDS011;7393;51.446;6.800;2023-04-24T02:10:45;10.87;;;6.07;;
14613;SDS011;7393;51.446;6.800;2023-04-24T02:13:11;8.77;;;5.93;;
14613;SDS011;7393;51.446;6.800;2023-04-24T02:15:40;12.73;;;6.47;;
14613;SDS011;7393;51.446;6.800;2023-04-24T02:18:06;10.20;;;6.87;;
14613;SDS011;7393;51.446;6.800;2023-04-24T02:20:33;11.87;;;7.30;;
14613;SDS011;7393;51.446;6.800;2023-04-24T02:23:00;13.87;;;7.33;;
14613;SDS011;7393;51.446;6.800;2023-04-24T02:25:27;9.87;;;6.97;;
14613;SDS011;7393;51.446;6.800;2023-04-24T02:27:54;9.93;;;7.30;;
14613;SDS011;7393;51.446;6.800;2023-04-24T02:30:20;10.90;;;8.13;;
14613;SDS011;7393;51.446;6.800;2023-04-24T02:32:48;12.40;;;8.20;;
14613;SDS011;7393;51.446;6.800;2023-04-24T02:35:15;15.40;;;8.43;;
14613;SDS011;7393;51.446;6.800;2023-04-24T02:37:42;14.40;;;8.90;;
14613;SDS011;7393;51.446;6.800;2023-04-24T02:40:09;14.67;;;9.40;;
14613;SDS011;7393;51.446;6.800;2023-04-24T02:42:36;15.20;;;8.23;;
14613;SDS011;7393;51.446;6.800;2023-04-24T02:45:03;11.10;;;8.70;;
14613;SDS011;7393;51.446;6.800;2023-04-24T02:47:30;12.60;;;9.07;;
14613;SDS011;7393;51.446;6.800;2023-04-24T02:49:58;12.00;;;8.00;;
14613;SDS011;7393;51.446;6.800;2023-04-24T02:52:25;13.43;;;8.63;;
14613;SDS011;7393;51.446;6.800;2023-04-24T02:54:52;13.53;;;8.87;;
14613;SDS011;7393;51.446;6.800;2023-04-24T02:57:19;14.23;;;8.90;;
14613;SDS011;7393;51.446;6.800;2023-04-24T02:59:46;14.83;;;9.53;;
14613;SDS011;7393;51.446;6.800;2023-04-24T03:02:13;12.93;;;10.00;;
14613;SDS011;7393;51.446;6.800;2023-04-24T03:04:40;17.73;;;10.77;;
14613;SDS011;7393;51.446;6.800;2023-04-24T03:07:09;16.63;;;10.37;;
14613;SDS011;7393;51.446;6.800;2023-04-24T03:09:36;15.20;;;10.97;;
14613;SDS011;7393;51.446;6.800;2023-04-24T03:12:02;16.17;;;10.63;;
14613;SDS011;7393;51.446;6.800;2023-04-24T03:14:29;15.63;;;11.37;;
14613;SDS011;7393;51.446;6.800;2023-04-24T03:16:56;16.80;;;10.63;;
14613;SDS011;7393;51.446;6.800;2023-04-24T03:19:23;16.43;;;11.03;;
14613;SDS011;7393;51.446;6.800;2023-04-24T03:21:50;17.00;;;10.43;;
14613;SDS011;7393;51.446;6.800;2023-04-24T03:24:18;19.93;;;10.80;;
14613;SDS011;7393;51.446;6.800;2023-04-24T03:26:45;17.13;;;11.50;;
14613;SDS011;7393;51.446;6.800;2023-04-24T03:29:12;14.63;;;11.73;;
14613;SDS011;7393;51.446;6.800;2023-04-24T03:31:39;15.93;;;11.53;;
14613;SDS011;7393;51.446;6.800;2023-04-24T03:34:05;18.87;;;10.33;;
14613;SDS011;7393;51.446;6.800;2023-04-24T03:36:32;15.67;;;11.30;;
14613;SDS011;7393;51.446;6.800;2023-04-24T03:38:59;22.07;;;11.77;;
14613;SDS011;7393;51.446;6.800;2023-04-24T03:41:27;15.47;;;10.97;;
14613;SDS011;7393;51.446;6.800;2023-04-24T03:43:55;17.40;;;11.10;;
14613;SDS011;7393;51.446;6.800;2023-04-24T03:46:22;16.70;;;10.77;;
14613;SDS011;7393;51.446;6.800;2023-04-24T03:48:49;20.37;;;11.33;;
14613;SDS011;7393;51.446;6.800;2023-04-24T03:51:15;23.37;;;11.30;;
14613;SDS011;7393;51.446;6.800;2023-04-24T03:53:42;19.30;;;11.00;;
14613;SDS011;7393;51.446;6.800;2023-04-24T03:56:09;14.90;;;10.90;;
14613;SDS011;7393;51.446;6.800;2023-04-24T03:58:37;15.40;;;10.67;;
14613;SDS011;7393;51.446;6.800;2023-04-24T04:01:04;17.67;;;10.00;;
14613;SDS011;7393;51.446;6.800;2023-04-24T04:03:31;17.50;;;10.80;;
14613;SDS011;7393;51.446;6.800;2023-04-24T04:05:58;15.23;;;11.37;;
14613;SDS011;7393;51.446;6.800;2023-04-24T04:08:25;18.43;;;11.10;;
14613;SDS011;7393;51.446;6.800;2023-04-24T04:10:52;18.23;;;9.83;;
14613;SDS011;7393;51.446;6.800;2023-04-24T04:13:19;14.20;;;10.70;;
14613;SDS011;7393;51.446;6.800;2023-04-24T04:15:47;18.70;;;11.13;;
14613;SDS011;7393;51.446;6.800;2023-04-24T04:18:14;18.27;;;11.57;;
14613;SDS011;7393;51.446;6.800;2023-04-24T04:20:41;16.53;;;10.83;;
14613;SDS011;7393;51.446;6.800;2023-04-24T04:23:08;15.33;;;10.93;;
14613;SDS011;7393;51.446;6.800;2023-04-24T04:25:34;14.73;;;9.43;;
14613;SDS011;7393;51.446;6.800;2023-04-24T04:28:01;13.50;;;9.73;;
14613;SDS011;7393;51.446;6.800;2023-04-24T04:30:28;14.03;;;8.93;;
14613;SDS011;7393;51.446;6.800;2023-04-24T04:32:58;15.67;;;8.80;;
14613;SDS011;7393;51.446;6.800;2023-04-24T04:35:26;13.50;;;9.10;;
14613;SDS011;7393;51.446;6.800;2023-04-24T04:37:52;12.80;;;8.63;;
14613;SDS011;7393;51.446;6.800;2023-04-24T04:40:19;14.63;;;9.03;;
14613;SDS011;7393;51.446;6.800;2023-04-24T04:42:46;14.10;;;8.40;;
14613;SDS011;7393;51.446;6.800;2023-04-24T04:45:13;12.73;;;8.67;;
14613;SDS011;7393;51.446;6.800;2023-04-24T04:47:41;16.97;;;9.00;;
14613;SDS011;7393;51.446;6.800;2023-04-24T04:50:10;12.20;;;8.17;;
14613;SDS011;7393;51.446;6.800;2023-04-24T04:52:37;10.67;;;8.03;;
14613;SDS011;7393;51.446;6.800;2023-04-24T04:55:05;10.77;;;8.00;;
14613;SDS011;7393;51.446;6.800;2023-04-24T04:57:32;12.20;;;8.43;;
14613;SDS011;7393;51.446;6.800;2023-04-24T04:59:59;11.23;;;8.13;;
14613;SDS011;7393;51.446;6.800;2023-04-24T05:02:26;12.23;;;7.87;;
14613;SDS011;7393;51.446;6.800;2023-04-24T05:04:53;12.53;;;8.60;;
14613;SDS011;7393;51.446;6.800;2023-04-24T05:07:21;10.27;;;7.97;;
14613;SDS011;7393;51.446;6.800;2023-04-24T05:09:48;14.67;;;9.13;;
14613;SDS011;7393;51.446;6.800;2023-04-24T05:12:16;13.57;;;8.33;;
14613;SDS011;7393;51.446;6.800;2023-04-24T05:14:43;10.33;;;7.57;;
14613;SDS011;7393;51.446;6.800;2023-04-24T05:17:09;9.30;;;7.87;;
14613;SDS011;7393;51.446;6.800;2023-04-24T05:19:36;11.00;;;7.63;;
14613;SDS011;7393;51.446;6.800;2023-04-24T05:22:03;9.80;;;7.50;;
14613;SDS011;7393;51.446;6.800;2023-04-24T05:24:33;10.43;;;8.03;;
14613;SDS011;7393;51.446;6.800;2023-04-24T05:27:00;9.93;;;8.30;;
14613;SDS011;7393;51.446;6.800;2023-04-24T05:29:27;11.97;;;8.13;;
14613;SDS011;7393;51.446;6.800;2023-04-24T05:31:55;10.13;;;8.20;;
14613;SDS011;7393;51.446;6.800;2023-04-24T05:34:22;15.90;;;9.97;;
14613;SDS011;7393;51.446;6.800;2023-04-24T05:36:49;14.10;;;10.77;;
14613;SDS011;7393;51.446;6.800;2023-04-24T05:39:16;11.40;;;9.07;;
14613;SDS011;7393;51.446;6.800;2023-04-24T05:41:46;13.07;;;9.93;;
14613;SDS011;7393;51.446;6.800;2023-04-24T05:44:12;11.00;;;8.90;;
14613;SDS011;7393;51.446;6.800;2023-04-24T05:46:39;11.83;;;8.13;;
14613;SDS011;7393;51.446;6.800;2023-04-24T05:49:06;13.30;;;8.90;;
14613;SDS011;7393;51.446;6.800;2023-04-24T05:51:32;12.33;;;9.00;;
14613;SDS011;7393;51.446;6.800;2023-04-24T05:54:00;10.40;;;8.70;;
14613;SDS011;7393;51.446;6.800;2023-04-24T05:56:28;13.23;;;9.07;;
14613;SDS011;7393;51.446;6.800;2023-04-24T05:58:57;11.90;;;9.13;;
14613;SDS011;7393;51.446;6.800;2023-04-24T06:01:23;10.40;;;8.33;;
14613;SDS011;7393;51.446;6.800;2023-04-24T06:03:51;10.33;;;8.10;;
14613;SDS011;7393;51.446;6.800;2023-04-24T06:06:18;8.40;;;7.10;;
14613;SDS011;7393;51.446;6.800;2023-04-24T06:08:45;11.53;;;7.83;;
14613;SDS011;7393;51.446;6.800;2023-04-24T06:11:12;12.63;;;7.63;;
14613;SDS011;7393;51.446;6.800;2023-04-24T06:13:38;10.50;;;8.37;;
14613;SDS011;7393;51.446;6.800;2023-04-24T06:16:06;12.63;;;8.87;;
14613;SDS011;7393;51.446;6.800;2023-04-24T06:18:33;11.30;;;8.33;;
14613;SDS011;7393;51.446;6.800;2023-04-24T06:21:00;9.07;;;7.67;;
14613;SDS011;7393;51.446;6.800;2023-04-24T06:23:27;11.70;;;8.13;;
14613;SDS011;7393;51.446;6.800;2023-04-24T06:25:54;8.33;;;7.37;;
14613;SDS011;7393;51.446;6.800;2023-04-24T06:28:21;9.33;;;7.50;;
14613;SDS011;7393;51.446;6.800;2023-04-24T06:30:48;11.13;;;6.80;;
14613;SDS011;7393;51.446;6.800;2023-04-24T06:33:16;10.67;;;6.87;;
14613;SDS011;7393;51.446;6.800;2023-04-24T06:35:43;8.87;;;7.00;;
14613;SDS011;7393;51.446;6.800;2023-04-24T06:38:10;9.43;;;6.97;;
14613;SDS011;7393;51.446;6.800;2023-04-24T06:40:36;7.70;;;6.87;;
14613;SDS011;7393;51.446;6.800;2023-04-24T06:43:03;8.37;;;6.77;;
14613;SDS011;7393;51.446;6.800;2023-04-24T06:45:31;9.50;;;6.57;;
14613;SDS011;7393;51.446;6.800;2023-04-24T06:47:57;10.50;;;7.13;;
14613;SDS011;7393;51.446;6.800;2023-04-24T06:50:26;10.60;;;7.00;;
14613;SDS011;7393;51.446;6.800;2023-04-24T06:52:52;11.17;;;7.70;;
14613;SDS011;7393;51.446;6.800;2023-04-24T06:55:19;8.87;;;7.27;;
14613;SDS011;7393;51.446;6.800;2023-04-24T06:57:46;10.07;;;6.70;;
14613;SDS011;7393;51.446;6.800;2023-04-24T07:00:13;6.83;;;5.20;;
14613;SDS011;7393;51.446;6.800;2023-04-24T07:02:40;8.97;;;5.30;;
14613;SDS011;7393;51.446;6.800;2023-04-24T07:05:07;8.87;;;5.40;;
14613;SDS011;7393;51.446;6.800;2023-04-24T07:07:35;6.13;;;4.80;;
14613;SDS011;7393;51.446;6.800;2023-04-24T07:10:03;4.63;;;3.87;;
14613;SDS011;7393;51.446;6.800;2023-04-24T07:12:30;5.20;;;4.27;;
14613;SDS011;7393;51.446;6.800;2023-04-24T07:14:57;5.37;;;3.43;;
14613;SDS011;7393;51.446;6.800;2023-04-24T07:17:23;4.43;;;3.27;;
14613;SDS011;7393;51.446;6.800;2023-04-24T07:19:50;8.40;;;3.60;;
14613;SDS011;7393;51.446;6.800;2023-04-24T07:22:17;7.30;;;3.30;;
14613;SDS011;7393;51.446;6.800;2023-04-24T07:24:45;5.40;;;3.00;;
14613;SDS011;7393;51.446;6.800;2023-04-24T07:27:12;5.43;;;2.50;;
14613;SDS011;7393;51.446;6.800;2023-04-24T07:29:39;4.50;;;2.20;;
14613;SDS011;7393;51.446;6.800;2023-04-24T07:32:06;9.97;;;2.30;;
14613;SDS011;7393;51.446;6.800;2023-04-24T07:34:34;4.40;;;2.70;;
14613;SDS011;7393;51.446;6.800;2023-04-24T07:37:00;4.47;;;2.90;;
14613;SDS011;7393;51.446;6.800;2023-04-24T07:39:28;6.43;;;3.43;;
14613;SDS011;7393;51.446;6.800;2023-04-24T07:41:56;3.33;;;2.60;;
14613;SDS011;7393;51.446;6.800;2023-04-24T07:44:24;4.83;;;2.43;;
14613;SDS011;7393;51.446;6.800;2023-04-24T07:46:51;4.63;;;2.00;;
14613;SDS011;7393;51.446;6.800;2023-04-24T07:49:18;1.70;;;1.50;;
14613;SDS011;7393;51.446;6.800;2023-04-24T07:51:45;4.57;;;1.67;;
14613;SDS011;7393;51.446;6.800;2023-04-24T07:54:12;2.53;;;0.90;;
14613;SDS011;7393;51.446;6.800;2023-04-24T07:56:38;2.87;;;1.43;;
14613;SDS011;7393;51.446;6.800;2023-04-24T07:59:09;4.40;;;1.43;;
14613;SDS011;7393;51.446;6.800;2023-04-24T08:01:36;2.30;;;1.27;;
14613;SDS011;7393;51.446;6.800;2023-04-24T08:04:03;4.17;;;1.50;;
14613;SDS011;7393;51.446;6.800;2023-04-24T08:06:29;4.07;;;1.83;;
14613;SDS011;7393;51.446;6.800;2023-04-24T08:08:56;3.63;;;1.90;;
14613;SDS011;7393;51.446;6.800;2023-04-24T08:11:24;3.27;;;1.60;;
14613;SDS011;7393;51.446;6.800;2023-04-24T08:13:51;2.00;;;1.80;;
14613;SDS011;7393;51.446;6.800;2023-04-24T08:16:19;2.97;;;2.13;;
14613;SDS011;7393;51.446;6.800;2023-04-24T08:18:45;3.90;;;2.20;;
14613;SDS011;7393;51.446;6.800;2023-04-24T08:21:12;7.03;;;2.67;;
14613;SDS011;7393;51.446;6.800;2023-04-24T08:23:42;5.27;;;2.80;;
14613;SDS011;7393;51.446;6.800;2023-04-24T08:26:08;6.13;;;2.70;;
14613;SDS011;7393;51.446;6.800;2023-04-24T08:28:36;4.07;;;2.20;;
14613;SDS011;7393;51.446;6.800;2023-04-24T08:31:03;4.63;;;1.90;;
14613;SDS011;7393;51.446;6.800;2023-04-24T08:33:31;3.57;;;1.80;;
14613;SDS011;7393;51.446;6.800;2023-04-24T08:35:59;5.90;;;1.80;;
14613;SDS011;7393;51.446;6.800;2023-04-24T08:38:26;4.23;;;1.37;;
14613;SDS011;7393;51.446;6.800;2023-04-24T08:40:53;7.27;;;1.60;;
14613;SDS011;7393;51.446;6.800;2023-04-24T08:43:20;5.73;;;1.47;;
14613;SDS011;7393;51.446;6.800;2023-04-24T08:45:48;4.53;;;1.70;;
14613;SDS011;7393;51.446;6.800;2023-04-24T08:48:15;5.17;;;1.53;;
14613;SDS011;7393;51.446;6.800;2023-04-24T08:50:45;4.30;;;1.87;;
14613;SDS011;7393;51.446;6.800;2023-04-24T08:53:12;4.77;;;1.50;;
14613;SDS011;7393;51.446;6.800;2023-04-24T08:55:39;5.33;;;1.90;;
14613;SDS011;7393;51.446;6.800;2023-04-24T08:58:07;3.77;;;1.43;;
14613;SDS011;7393;51.446;6.800;2023-04-24T09:00:34;4.33;;;1.73;;
14613;SDS011;7393;51.446;6.800;2023-04-24T09:03:02;5.47;;;1.30;;
14613;SDS011;7393;51.446;6.800;2023-04-24T09:05:30;2.10;;;1.07;;
14613;SDS011;7393;51.446;6.800;2023-04-24T09:07:59;2.53;;;1.90;;
14613;SDS011;7393;51.446;6.800;2023-04-24T09:10:30;4.97;;;2.90;;
14613;SDS011;7393;51.446;6.800;2023-04-24T09:12:58;6.43;;;3.80;;
14613;SDS011;7393;51.446;6.800;2023-04-24T09:15:27;6.13;;;4.67;;
14613;SDS011;7393;51.446;6.800;2023-04-24T09:17:55;7.50;;;5.10;;
14613;SDS011;7393;51.446;6.800;2023-04-24T09:20:22;8.17;;;5.20;;
14613;SDS011;7393;51.446;6.800;2023-04-24T09:22:52;8.10;;;5.17;;
14613;SDS011;7393;51.446;6.800;2023-04-24T09:25:21;7.47;;;4.97;;
14613;SDS011;7393;51.446;6.800;2023-04-24T09:27:48;6.80;;;4.90;;
14613;SDS011;7393;51.446;6.800;2023-04-24T09:30:20;7.43;;;4.47;;
14613;SDS011;7393;51.446;6.800;2023-04-24T09:32:48;8.67;;;4.87;;
14613;SDS011;7393;51.446;6.800;2023-04-24T09:35:15;8.43;;;4.17;;
14613;SDS011;7393;51.446;6.800;2023-04-24T09:37:42;6.30;;;4.37;;
14613;SDS011;7393;51.446;6.800;2023-04-24T09:40:12;6.63;;;4.70;;
14613;SDS011;7393;51.446;6.800;2023-04-24T09:42:44;7.43;;;5.10;;
14613;SDS011;7393;51.446;6.800;2023-04-24T09:45:12;6.03;;;4.70;;
14613;SDS011;7393;51.446;6.800;2023-04-24T09:47:38;6.60;;;5.37;;
14613;SDS011;7393;51.446;6.800;2023-04-24T09:50:09;10.90;;;5.80;;
14613;SDS011;7393;51.446;6.800;2023-04-24T09:52:39;8.73;;;6.50;;
14613;SDS011;7393;51.446;6.800;2023-04-24T09:55:10;14.27;;;6.70;;
14613;SDS011;7393;51.446;6.800;2023-04-24T09:57:47;9.50;;;5.63;;
14613;SDS011;7393;51.446;6.800;2023-04-24T10:00:17;12.70;;;6.63;;
14613;SDS011;7393;51.446;6.800;2023-04-24T10:02:45;11.10;;;5.80;;
14613;SDS011;7393;51.446;6.800;2023-04-24T10:05:16;12.70;;;5.93;;
14613;SDS011;7393;51.446;6.800;2023-04-24T10:07:43;11.13;;;5.63;;
14613;SDS011;7393;51.446;6.800;2023-04-24T10:10:10;15.30;;;6.10;;
14613;SDS011;7393;51.446;6.800;2023-04-24T10:12:39;12.47;;;6.43;;
14613;SDS011;7393;51.446;6.800;2023-04-24T10:15:08;9.07;;;5.00;;
14613;SDS011;7393;51.446;6.800;2023-04-24T10:17:38;13.77;;;5.50;;
14613;SDS011;7393;51.446;6.800;2023-04-24T10:20:06;11.13;;;5.33;;
14613;SDS011;7393;51.446;6.800;2023-04-24T10:22:34;13.33;;;5.10;;
14613;SDS011;7393;51.446;6.800;2023-04-24T10:25:03;14.13;;;4.80;;
14613;SDS011;7393;51.446;6.800;2023-04-24T10:27:32;9.67;;;4.20;;
14613;SDS011;7393;51.446;6.800;2023-04-24T10:30:00;12.03;;;4.30;;
14613;SDS011;7393;51.446;6.800;2023-04-24T10:32:29;11.80;;;4.40;;
14613;SDS011;7393;51.446;6.800;2023-04-24T10:34:56;10.40;;;4.47;;
14613;SDS011;7393;51.446;6.800;2023-04-24T10:37:23;11.07;;;4.77;;
14613;SDS011;7393;51.446;6.800;2023-04-24T10:39:51;10.33;;;4.80;;
14613;SDS011;7393;51.446;6.800;2023-04-24T10:42:19;15.10;;;5.00;;
14613;SDS011;7393;51.446;6.800;2023-04-24T10:44:47;13.87;;;4.80;;
14613;SDS011;7393;51.446;6.800;2023-04-24T10:47:14;9.87;;;4.77;;
14613;SDS011;7393;51.446;6.800;2023-04-24T10:49:42;13.87;;;5.47;;
14613;SDS011;7393;51.446;6.800;2023-04-24T10:52:09;12.43;;;4.57;;
14613;SDS011;7393;51.446;6.800;2023-04-24T10:54:40;14.43;;;4.27;;
14613;SDS011;7393;51.446;6.800;2023-04-24T10:57:26;13.90;;;4.67;;
14613;SDS011;7393;51.446;6.800;2023-04-24T11:00:10;10.43;;;4.60;;
14613;SDS011;7393;51.446;6.800;2023-04-24T11:02:40;14.80;;;4.83;;
14613;SDS011;7393;51.446;6.800;2023-04-24T11:05:15;13.53;;;4.77;;
14613;SDS011;7393;51.446;6.800;2023-04-24T11:10:39;15.13;;;5.20;;
14613;SDS011;7393;51.446;6.800;2023-04-24T11:13:06;10.63;;;5.17;;
14613;SDS011;7393;51.446;6.800;2023-04-24T11:15:34;15.90;;;4.90;;
14613;SDS011;7393;51.446;6.800;2023-04-24T11:18:01;11.73;;;4.73;;
14613;SDS011;7393;51.446;6.800;2023-04-24T11:20:29;12.20;;;4.73;;
14613;SDS011;7393;51.446;6.800;2023-04-24T11:22:57;13.47;;;5.20;;
14613;SDS011;7393;51.446;6.800;2023-04-24T11:25:30;11.67;;;4.47;;
14613;SDS011;7393;51.446;6.800;2023-04-24T11:28:02;8.83;;;3.83;;
14613;SDS011;7393;51.446;6.800;2023-04-24T11:30:31;10.17;;;4.10;;
14613;SDS011;7393;51.446;6.800;2023-04-24T11:33:01;12.27;;;3.70;;
14613;SDS011;7393;51.446;6.800;2023-04-24T11:35:30;7.43;;;3.30;;
14613;SDS011;7393;51.446;6.800;2023-04-24T11:38:02;8.53;;;3.20;;
14613;SDS011;7393;51.446;6.800;2023-04-24T11:40:30;8.53;;;3.20;;
14613;SDS011;7393;51.446;6.800;2023-04-24T11:42:59;9.20;;;3.50;;
14613;SDS011;7393;51.446;6.800;2023-04-24T11:45:26;10.33;;;3.57;;
14613;SDS011;7393;51.446;6.800;2023-04-24T11:47:54;16.97;;;3.83;;
14613;SDS011;7393;51.446;6.800;2023-04-24T11:50:22;8.27;;;4.03;;
14613;SDS011;7393;51.446;6.800;2023-04-24T11:52:52;9.87;;;4.13;;
14613;SDS011;7393;51.446;6.800;2023-04-24T11:55:25;11.07;;;3.77;;
14613;SDS011;7393;51.446;6.800;2023-04-24T11:57:53;8.87;;;3.87;;
14613;SDS011;7393;51.446;6.800;2023-04-24T12:00:23;8.37;;;3.60;;
14613;SDS011;7393;51.446;6.800;2023-04-24T12:02:51;12.23;;;4.30;;
14613;SDS011;7393;51.446;6.800;2023-04-24T12:05:29;11.47;;;4.03;;
14613;SDS011;7393;51.446;6.800;2023-04-24T12:07:58;11.60;;;4.10;;
14613;SDS011;7393;51.446;6.800;2023-04-24T12:10:26;10.17;;;3.53;;
14613;SDS011;7393;51.446;6.800;2023-04-24T12:12:55;8.90;;;3.97;;
14613;SDS011;7393;51.446;6.800;2023-04-24T12:15:22;6.67;;;3.73;;
14613;SDS011;7393;51.446;6.800;2023-04-24T12:17:50;12.17;;;4.00;;
14613;SDS011;7393;51.446;6.800;2023-04-24T12:20:23;8.93;;;3.37;;
14613;SDS011;7393;51.446;6.800;2023-04-24T12:22:51;8.17;;;3.50;;
14613;SDS011;7393;51.446;6.800;2023-04-24T12:25:21;5.23;;;2.83;;
14613;SDS011;7393;51.446;6.800;2023-04-24T12:27:52;5.57;;;2.97;;
14613;SDS011;7393;51.446;6.800;2023-04-24T12:30:21;5.60;;;2.87;;
14613;SDS011;7393;51.446;6.800;2023-04-24T12:32:52;6.93;;;2.80;;
14613;SDS011;7393;51.446;6.800;2023-04-24T12:35:20;6.47;;;2.20;;
14613;SDS011;7393;51.446;6.800;2023-04-24T12:37:47;4.63;;;2.37;;
14613;SDS011;7393;51.446;6.800;2023-04-24T12:40:14;10.80;;;2.43;;
14613;SDS011;7393;51.446;6.800;2023-04-24T12:42:45;3.87;;;2.10;;
14613;SDS011;7393;51.446;6.800;2023-04-24T12:45:13;5.10;;;2.20;;
14613;SDS011;7393;51.446;6.800;2023-04-24T12:47:42;4.53;;;2.20;;
14613;SDS011;7393;51.446;6.800;2023-04-24T12:50:10;4.13;;;2.00;;
14613;SDS011;7393;51.446;6.800;2023-04-24T12:52:37;3.77;;;2.00;;
14613;SDS011;7393;51.446;6.800;2023-04-24T12:55:05;5.20;;;2.03;;
14613;SDS011;7393;51.446;6.800;2023-04-24T12:57:34;6.93;;;2.30;;
14613;SDS011;7393;51.446;6.800;2023-04-24T13:00:03;3.17;;;2.00;;
14613;SDS011;7393;51.446;6.800;2023-04-24T13:02:31;5.67;;;2.20;;
14613;SDS011;7393;51.446;6.800;2023-04-24T13:04:59;3.40;;;1.90;;
14613;SDS011;7393;51.446;6.800;2023-04-24T13:07:26;2.57;;;1.70;;
14613;SDS011;7393;51.446;6.800;2023-04-24T13:09:54;2.43;;;1.40;;
14613;SDS011;7393;51.446;6.800;2023-04-24T13:12:21;7.93;;;1.57;;
14613;SDS011;7393;51.446;6.800;2023-04-24T13:14:50;3.83;;;1.37;;
14613;SDS011;7393;51.446;6.800;2023-04-24T13:17:18;5.33;;;1.57;;
14613;SDS011;7393;51.446;6.800;2023-04-24T13:19:45;4.93;;;2.40;;
14613;SDS011;7393;51.446;6.800;2023-04-24T13:22:12;3.63;;;1.50;;
14613;SDS011;7393;51.446;6.800;2023-04-24T13:24:39;3.17;;;1.40;;
14613;SDS011;7393;51.446;6.800;2023-04-24T13:27:06;2.87;;;1.37;;
14613;SDS011;7393;51.446;6.800;2023-04-24T13:29:34;5.93;;;1.50;;
14613;SDS011;7393;51.446;6.800;2023-04-24T13:32:01;5.53;;;1.50;;
14613;SDS011;7393;51.446;6.800;2023-04-24T13:34:29;3.63;;;1.43;;
14613;SDS011;7393;51.446;6.800;2023-04-24T13:36:56;3.77;;;1.23;;
14613;SDS011;7393;51.446;6.800;2023-04-24T13:39:24;2.63;;;1.43;;
14613;SDS011;7393;51.446;6.800;2023-04-24T13:41:51;4.60;;;1.60;;
14613;SDS011;7393;51.446;6.800;2023-04-24T13:44:18;4.73;;;1.50;;
14613;SDS011;7393;51.446;6.800;2023-04-24T13:46:46;4.73;;;1.40;;
14613;SDS011;7393;51.446;6.800;2023-04-24T13:49:17;3.53;;;1.57;;
14613;SDS011;7393;51.446;6.800;2023-04-24T13:51:45;4.57;;;1.40;;
14613;SDS011;7393;51.446;6.800;2023-04-24T13:54:12;5.60;;;1.60;;
14613;SDS011;7393;51.446;6.800;2023-04-24T13:56:39;4.13;;;1.47;;
14613;SDS011;7393;51.446;6.800;2023-04-24T13:59:06;3.23;;;1.20;;
14613;SDS011;7393;51.446;6.800;2023-04-24T14:01:33;2.57;;;1.47;;
14613;SDS011;7393;51.446;6.800;2023-04-24T14:04:01;3.67;;;1.40;;
14613;SDS011;7393;51.446;6.800;2023-04-24T14:06:28;2.67;;;1.40;;
14613;SDS011;7393;51.446;6.800;2023-04-24T14:08:56;2.67;;;1.30;;
14613;SDS011;7393;51.446;6.800;2023-04-24T14:11:22;1.40;;;1.30;;
14613;SDS011;7393;51.446;6.800;2023-04-24T14:13:49;3.23;;;1.17;;
14613;SDS011;7393;51.446;6.800;2023-04-24T14:16:16;4.03;;;1.67;;
14613;SDS011;7393;51.446;6.800;2023-04-24T14:18:43;4.57;;;1.50;;
14613;SDS011;7393;51.446;6.800;2023-04-24T14:21:10;3.20;;;1.30;;
14613;SDS011;7393;51.446;6.800;2023-04-24T14:23:37;4.23;;;1.50;;
14613;SDS011;7393;51.446;6.800;2023-04-24T14:26:05;2.80;;;1.23;;
14613;SDS011;7393;51.446;6.800;2023-04-24T14:28:32;5.73;;;1.63;;
14613;SDS011;7393;51.446;6.800;2023-04-24T14:30:59;3.07;;;1.40;;
14613;SDS011;7393;51.446;6.800;2023-04-24T14:33:26;1.23;;;1.03;;
14613;SDS011;7393;51.446;6.800;2023-04-24T14:35:52;2.77;;;1.23;;
14613;SDS011;7393;51.446;6.800;2023-04-24T14:38:19;4.30;;;1.43;;
14613;SDS011;7393;51.446;6.800;2023-04-24T14:40:46;2.40;;;1.27;;
14613;SDS011;7393;51.446;6.800;2023-04-24T14:43:14;1.53;;;1.20;;
14613;SDS011;7393;51.446;6.800;2023-04-24T14:45:41;3.20;;;1.70;;
14613;SDS011;7393;51.446;6.800;2023-04-24T14:48:08;2.50;;;1.53;;
14613;SDS011;7393;51.446;6.800;2023-04-24T14:50:36;4.97;;;1.83;;
14613;SDS011;7393;51.446;6.800;2023-04-24T14:53:03;3.70;;;1.87;;
14613;SDS011;7393;51.446;6.800;2023-04-24T14:55:30;5.43;;;2.07;;
14613;SDS011;7393;51.446;6.800;2023-04-24T14:57:58;3.77;;;2.23;;
14613;SDS011;7393;51.446;6.800;2023-04-24T15:00:26;4.00;;;1.90;;